Time;durP1;ratioP1;P1;durP2;ratioP2;P2;SDS_P1;SDS_P2;PMS_P1;PMS_P2;Temp;Humidity;BMP_temperature;BMP_pressure;BME280_temperature;BME280_humidity;BME280_pressure;Samples;Min_cycle;Max_cycle;Signal;HPM_P1;HPM_P2
2022/04/14 00:00:19;;;;;;;0.30;0.30;;;10.20;99.90;;;;;;5053504;28;20193;-68
2022/04/14 00:02:45;;;;;;;0.30;0.30;;;10.20;99.90;;;;;;5053753;28;20627;-68
2022/04/14 00:05:11;;;;;;;0.40;0.40;;;10.20;99.90;;;;;;5053318;28;20245;-68
2022/04/14 00:07:36;;;;;;;0.30;0.30;;;10.20;99.90;;;;;;5053559;28;20742;-68
2022/04/14 00:10:03;;;;;;;0.30;0.30;;;10.20;99.90;;;;;;5053647;28;20658;-69
2022/04/14 00:12:29;;;;;;;0.30;0.30;;;10.20;99.90;;;;;;5053468;28;20496;-69
2022/04/14 00:14:55;;;;;;;0.30;0.30;;;10.20;99.90;;;;;;5053378;28;20343;-68
2022/04/14 00:17:20;;;;;;;0.30;0.30;;;10.20;99.90;;;;;;5053407;28;20194;-69
2022/04/14 00:19:46;;;;;;;0.30;0.30;;;10.10;99.90;;;;;;5053145;28;20220;-69
2022/04/14 00:22:12;;;;;;;0.30;0.30;;;10.20;99.90;;;;;;5053144;28;20177;-68
2022/04/14 00:24:37;;;;;;;0.30;0.30;;;10.10;99.90;;;;;;5053506;28;20519;-68
2022/04/14 00:27:03;;;;;;;0.30;0.30;;;10.10;99.90;;;;;;5053316;28;20654;-69
2022/04/14 00:29:29;;;;;;;0.30;0.30;;;10.10;99.90;;;;;;5053389;28;20555;-68
2022/04/14 00:31:55;;;;;;;0.30;0.30;;;10.00;99.90;;;;;;5051903;28;20291;-68
2022/04/14 00:34:21;;;;;;;0.30;0.30;;;9.90;99.90;;;;;;5053325;28;20202;-68
2022/04/14 00:36:46;;;;;;;0.57;0.57;;;9.90;99.90;;;;;;5051794;28;20623;-68
2022/04/14 00:39:12;;;;;;;0.30;0.30;;;9.80;99.90;;;;;;5053152;28;20412;-68
2022/04/14 00:41:38;;;;;;;0.30;0.30;;;9.90;99.90;;;;;;5053035;28;20626;-69
2022/04/14 00:44:04;;;;;;;0.30;0.30;;;9.90;99.90;;;;;;5053060;28;20180;-69
2022/04/14 00:46:30;;;;;;;0.30;0.30;;;10.00;99.90;;;;;;5053060;28;20177;-67
2022/04/14 00:48:56;;;;;;;0.30;0.30;;;10.00;99.90;;;;;;5052894;28;20678;-69
2022/04/14 00:51:22;;;;;;;0.30;0.30;;;9.90;99.90;;;;;;5052840;28;20175;-69
2022/04/14 00:53:48;;;;;;;0.30;0.30;;;10.00;99.90;;;;;;5053232;28;20174;-69
2022/04/14 00:56:14;;;;;;;0.30;0.30;;;10.00;99.90;;;;;;5053058;28;20173;-69
2022/04/14 00:58:42;;;;;;;0.30;0.30;;;9.90;99.90;;;;;;5052886;28;20429;-69
2022/04/14 01:01:09;;;;;;;0.50;0.50;;;9.80;99.90;;;;;;5052856;28;20170;-69
2022/04/14 01:03:36;;;;;;;0.30;0.30;;;9.70;99.90;;;;;;5053115;28;20178;-68
2022/04/14 01:06:03;;;;;;;0.35;0.35;;;9.60;99.90;;;;;;5053070;28;20174;-68
2022/04/14 01:08:32;;;;;;;0.30;0.30;;;9.70;99.90;;;;;;5052790;28;20255;-68
2022/04/14 01:10:58;;;;;;;0.30;0.30;;;9.70;99.90;;;;;;5052874;28;20657;-69
2022/04/14 01:13:24;;;;;;;0.30;0.30;;;9.70;99.90;;;;;;5052967;28;20174;-68
2022/04/14 01:15:59;;;;;;;0.30;0.30;;;9.70;99.90;;;;;;5052757;28;20280;-69
2022/04/14 01:18:25;;;;;;;0.30;0.30;;;9.70;99.90;;;;;;5055497;28;20220;-68
2022/04/14 01:20:52;;;;;;;0.85;0.85;;;9.70;99.90;;;;;;5056414;28;20253;-68
2022/04/14 01:23:24;;;;;;;0.30;0.30;;;9.60;99.90;;;;;;5056497;28;20197;-69
2022/04/14 01:25:50;;;;;;;0.30;0.30;;;9.60;99.90;;;;;;5056590;28;20182;-68
2022/04/14 01:28:16;;;;;;;0.30;0.30;;;9.50;99.90;;;;;;5056465;28;20255;-69
2022/04/14 01:30:41;;;;;;;0.30;0.30;;;9.50;99.90;;;;;;5056136;28;20419;-69
2022/04/14 01:33:07;;;;;;;0.30;0.30;;;9.40;99.90;;;;;;5056315;28;20173;-68
2022/04/14 01:35:33;;;;;;;0.30;0.30;;;9.40;99.90;;;;;;5056540;28;20166;-68
2022/04/14 01:37:58;;;;;;;0.30;0.30;;;9.40;99.90;;;;;;5056136;28;20553;-69
2022/04/14 01:40:24;;;;;;;0.30;0.30;;;9.40;99.90;;;;;;5056111;28;20252;-68
2022/04/14 01:42:50;;;;;;;0.30;0.30;;;9.40;99.90;;;;;;5056359;28;20630;-68
2022/04/14 01:45:16;;;;;;;0.30;0.30;;;9.40;99.90;;;;;;5056204;28;20419;-68
2022/04/14 01:47:43;;;;;;;0.40;0.40;;;9.40;99.90;;;;;;5054675;28;20212;-69
2022/04/14 01:50:10;;;;;;;0.30;0.30;;;9.30;99.90;;;;;;5055859;28;20177;-69
2022/04/14 01:52:36;;;;;;;0.30;0.30;;;9.20;99.90;;;;;;5056184;28;20196;-69
2022/04/14 01:55:04;;;;;;;0.30;0.30;;;9.20;99.90;;;;;;5056090;28;20530;-69
2022/04/14 01:57:29;;;;;;;0.30;0.30;;;9.20;99.90;;;;;;5056074;28;20218;-68
2022/04/14 01:59:57;;;;;;;0.30;0.30;;;9.10;99.90;;;;;;5055611;28;20661;-69
2022/04/14 02:02:22;;;;;;;0.30;0.30;;;9.20;99.90;;;;;;5055811;28;20904;-68
2022/04/14 02:04:48;;;;;;;0.40;0.40;;;9.20;99.90;;;;;;5055967;28;20231;-69
2022/04/14 02:07:15;;;;;;;0.30;0.30;;;9.10;99.90;;;;;;5055631;28;20205;-68
2022/04/14 02:09:41;;;;;;;0.30;0.30;;;9.10;99.90;;;;;;5055818;28;20181;-69
2022/04/14 02:12:07;;;;;;;0.30;0.30;;;9.20;99.90;;;;;;5055666;28;20166;-68
2022/04/14 02:14:32;;;;;;;0.40;0.40;;;9.20;99.90;;;;;;5055757;28;20519;-69
2022/04/14 02:16:58;;;;;;;0.30;0.30;;;9.30;99.90;;;;;;5055418;28;20429;-69
2022/04/14 02:19:23;;;;;;;0.40;0.40;;;9.30;99.90;;;;;;5055530;28;20299;-68
2022/04/14 02:21:49;;;;;;;0.30;0.30;;;9.30;99.90;;;;;;5055165;28;20182;-68
2022/04/14 02:24:15;;;;;;;0.30;0.30;;;9.30;99.90;;;;;;5056059;28;20169;-69
2022/04/14 02:26:40;;;;;;;0.30;0.30;;;9.20;99.90;;;;;;5055290;28;20166;-68
2022/04/14 02:29:06;;;;;;;0.30;0.30;;;9.20;99.90;;;;;;5055002;28;20198;-69
2022/04/14 02:31:31;;;;;;;0.30;0.30;;;9.10;99.90;;;;;;5055155;28;20642;-69
2022/04/14 02:33:57;;;;;;;0.30;0.30;;;9.10;99.90;;;;;;5055260;28;20627;-69
2022/04/14 02:36:23;;;;;;;0.30;0.30;;;9.00;99.90;;;;;;5055249;28;20197;-69
2022/04/14 02:38:49;;;;;;;0.30;0.30;;;9.00;99.90;;;;;;5053763;28;20221;-69
2022/04/14 02:41:15;;;;;;;0.30;0.30;;;8.90;99.90;;;;;;5055013;28;20173;-68
2022/04/14 02:43:41;;;;;;;0.30;0.30;;;8.90;99.90;;;;;;5055163;28;20404;-68
2022/04/14 02:46:06;;;;;;;0.50;0.50;;;9.00;99.90;;;;;;5055403;28;20498;-69
2022/04/14 02:48:32;;;;;;;0.30;0.30;;;9.10;99.90;;;;;;5054783;28;20201;-68
2022/04/14 02:50:58;;;;;;;0.50;0.50;;;9.10;99.90;;;;;;5054780;28;20169;-69
2022/04/14 02:53:24;;;;;;;0.33;0.33;;;9.10;99.90;;;;;;5054953;28;20805;-68
2022/04/14 02:55:50;;;;;;;0.30;0.30;;;9.20;99.90;;;;;;5054928;28;20189;-68
2022/04/14 02:58:16;;;;;;;0.30;0.30;;;9.10;99.90;;;;;;5054569;28;20278;-68
2022/04/14 03:00:41;;;;;;;0.30;0.30;;;9.10;99.90;;;;;;5054667;28;20173;-68
2022/04/14 03:03:07;;;;;;;0.30;0.30;;;9.00;99.90;;;;;;5054666;28;20264;-68
2022/04/14 03:05:33;;;;;;;0.30;0.30;;;8.90;99.90;;;;;;5054827;28;20200;-68
2022/04/14 03:07:58;;;;;;;0.30;0.30;;;8.80;99.90;;;;;;5054200;28;20449;-68
2022/04/14 03:10:25;;;;;;;0.40;0.40;;;8.80;99.90;;;;;;5054091;28;20174;-69
2022/04/14 03:12:51;;;;;;;0.30;0.30;;;8.80;99.90;;;;;;5054256;28;20188;-69
2022/04/14 03:15:18;;;;;;;0.30;0.30;;;8.80;99.90;;;;;;5054501;28;20191;-69
2022/04/14 03:17:44;;;;;;;0.30;0.30;;;8.80;99.90;;;;;;5053983;28;20663;-69
2022/04/14 03:20:10;;;;;;;0.30;0.30;;;8.90;99.90;;;;;;5053883;28;20185;-68
2022/04/14 03:22:36;;;;;;;0.30;0.30;;;8.90;99.90;;;;;;5053929;28;20194;-69
2022/04/14 03:25:07;;;;;;;0.30;0.30;;;8.90;99.90;;;;;;5054360;28;20183;-68
2022/04/14 03:27:33;;;;;;;0.30;0.30;;;8.90;99.90;;;;;;5053937;28;20492;-69
2022/04/14 03:29:59;;;;;;;0.30;0.30;;;8.90;99.90;;;;;;5053912;28;20261;-69
2022/04/14 03:32:25;;;;;;;0.30;0.30;;;8.80;99.90;;;;;;5054165;28;20408;-68
2022/04/14 03:34:54;;;;;;;0.30;0.30;;;8.80;99.90;;;;;;5054194;28;20404;-68
2022/04/14 03:37:22;;;;;;;0.30;0.30;;;8.70;99.90;;;;;;5054118;28;20481;-68
2022/04/14 03:39:48;;;;;;;0.30;0.30;;;8.70;99.90;;;;;;5053130;28;20228;-68
2022/04/14 03:42:14;;;;;;;0.30;0.30;;;8.70;99.90;;;;;;5053936;28;20174;-69
2022/04/14 03:44:39;;;;;;;0.30;0.30;;;8.60;99.90;;;;;;5053922;28;20443;-68
2022/04/14 03:47:06;;;;;;;0.30;0.30;;;8.50;99.90;;;;;;5053887;28;20190;-68
2022/04/14 03:49:31;;;;;;;0.30;0.30;;;8.70;99.90;;;;;;5053836;28;20422;-69
2022/04/14 03:51:57;;;;;;;0.30;0.30;;;8.70;99.90;;;;;;5053789;28;20178;-67
2022/04/14 03:54:22;;;;;;;0.30;0.30;;;8.70;99.90;;;;;;5053904;28;20631;-69
2022/04/14 03:56:48;;;;;;;0.30;0.30;;;8.70;99.90;;;;;;5052327;28;20601;-68
2022/04/14 03:59:15;;;;;;;0.30;0.30;;;8.70;99.90;;;;;;5053690;28;20166;-68
2022/04/14 04:01:41;;;;;;;0.30;0.30;;;8.60;99.90;;;;;;5053419;28;20258;-68
2022/04/14 04:04:06;;;;;;;0.33;0.33;;;8.60;99.90;;;;;;5053742;28;20628;-69
2022/04/14 04:06:32;;;;;;;0.30;0.30;;;8.50;99.90;;;;;;5053737;28;20166;-68
2022/04/14 04:08:57;;;;;;;0.30;0.30;;;8.40;99.90;;;;;;5053320;28;20558;-68
2022/04/14 04:11:23;;;;;;;0.30;0.30;;;8.40;99.90;;;;;;5052043;28;20523;-68
2022/04/14 04:13:49;;;;;;;0.30;0.30;;;8.50;99.90;;;;;;5053710;28;20630;-68
2022/04/14 04:16:15;;;;;;;0.30;0.30;;;8.50;99.90;;;;;;5052224;28;20657;-68
2022/04/14 04:18:40;;;;;;;0.40;0.40;;;8.50;99.90;;;;;;5053342;28;20453;-68
2022/04/14 04:21:06;;;;;;;0.30;0.30;;;8.50;99.90;;;;;;5053105;28;20205;-68
2022/04/14 04:23:31;;;;;;;0.30;0.30;;;8.50;99.90;;;;;;5053468;28;20178;-68
2022/04/14 04:25:57;;;;;;;0.30;0.30;;;8.50;99.90;;;;;;5053718;28;20602;-68
2022/04/14 04:28:30;;;;;;;0.30;0.30;;;8.50;99.90;;;;;;5053226;28;20247;-68
2022/04/14 04:30:56;;;;;;;0.30;0.30;;;8.50;99.90;;;;;;5053180;28;20173;-68
2022/04/14 04:33:22;;;;;;;0.30;0.30;;;8.50;99.90;;;;;;5053381;28;20177;-68
2022/04/14 04:35:49;;;;;;;0.30;0.30;;;8.50;99.90;;;;;;5053404;28;20212;-68
2022/04/14 04:38:15;;;;;;;0.30;0.30;;;8.50;99.90;;;;;;5053131;28;20723;-69
2022/04/14 04:40:40;;;;;;;0.30;0.30;;;8.50;99.90;;;;;;5053012;28;20184;-68
2022/04/14 04:43:06;;;;;;;0.30;0.30;;;8.50;99.90;;;;;;5053380;28;20278;-69
2022/04/14 04:45:31;;;;;;;0.30;0.30;;;8.50;99.90;;;;;;5053218;28;20236;-68
2022/04/14 04:47:58;;;;;;;0.30;0.30;;;8.50;99.90;;;;;;5053485;28;20799;-69
2022/04/14 04:50:24;;;;;;;0.30;0.30;;;8.50;99.90;;;;;;5052759;28;20637;-69
2022/04/14 04:52:49;;;;;;;0.50;0.50;;;8.60;99.90;;;;;;5057258;28;20180;-69
2022/04/14 04:55:15;;;;;;;7.93;1.03;;;8.70;99.90;;;;;;5057012;28;20215;-68
2022/04/14 04:57:40;;;;;;;0.30;0.30;;;8.70;99.90;;;;;;5056861;28;20189;-68
2022/04/14 05:00:07;;;;;;;0.30;0.30;;;8.70;99.90;;;;;;5057108;28;20284;-68
2022/04/14 05:02:32;;;;;;;0.30;0.30;;;8.80;99.90;;;;;;5057164;28;20224;-68
2022/04/14 05:04:58;;;;;;;0.30;0.30;;;8.90;99.90;;;;;;5057143;28;20177;-69
2022/04/14 05:07:23;;;;;;;0.30;0.30;;;8.90;99.90;;;;;;5055683;28;20217;-68
2022/04/14 05:09:49;;;;;;;0.40;0.40;;;8.90;99.90;;;;;;5056639;28;20242;-69
2022/04/14 05:12:15;;;;;;;0.30;0.30;;;9.00;99.90;;;;;;5056983;28;20166;-69
2022/04/14 05:14:40;;;;;;;0.30;0.30;;;9.10;99.90;;;;;;5056765;28;20169;-69
2022/04/14 05:17:06;;;;;;;0.30;0.30;;;9.10;99.90;;;;;;5056802;28;20184;-69
2022/04/14 05:19:32;;;;;;;0.30;0.30;;;9.20;99.90;;;;;;5056637;28;20408;-68
2022/04/14 05:22:01;;;;;;;0.30;0.30;;;9.30;99.90;;;;;;5056420;28;20208;-69
2022/04/14 05:24:28;;;;;;;0.30;0.30;;;9.40;99.90;;;;;;5056591;28;20173;-68
2022/04/14 05:26:54;;;;;;;0.30;0.30;;;9.40;99.90;;;;;;5056677;28;20497;-69
2022/04/14 05:29:19;;;;;;;0.30;0.30;;;9.40;99.90;;;;;;5055140;28;20201;-68
2022/04/14 05:31:45;;;;;;;0.30;0.30;;;9.40;99.90;;;;;;5056410;28;20163;-68
2022/04/14 05:34:10;;;;;;;0.30;0.30;;;9.40;99.90;;;;;;5056534;28;20290;-68
2022/04/14 05:36:36;;;;;;;0.30;0.30;;;9.50;99.90;;;;;;5056431;28;20176;-69
2022/04/14 05:39:02;;;;;;;0.30;0.30;;;9.70;99.90;;;;;;5056697;28;20196;-68
2022/04/14 05:41:28;;;;;;;0.30;0.30;;;9.80;99.90;;;;;;5056143;28;20174;-68
2022/04/14 05:43:53;;;;;;;0.60;0.60;;;10.20;99.90;;;;;;5056277;28;20581;-69
2022/04/14 05:46:19;;;;;;;0.30;0.30;;;10.90;99.90;;;;;;5056386;28;20401;-69
2022/04/14 05:48:45;;;;;;;0.30;0.30;;;11.70;99.90;;;;;;5055993;28;20604;-70
2022/04/14 05:51:10;;;;;;;0.30;0.30;;;12.40;98.80;;;;;;5055925;28;20173;-69
2022/04/14 05:53:36;;;;;;;0.40;0.40;;;13.20;97.30;;;;;;5056284;28;20179;-69
2022/04/14 05:56:02;;;;;;;0.60;0.60;;;14.20;95.70;;;;;;5056058;28;20190;-69
2022/04/14 05:58:27;;;;;;;0.40;0.40;;;15.30;93.80;;;;;;5055902;28;20482;-68
2022/04/14 06:00:53;;;;;;;0.30;0.30;;;16.10;91.10;;;;;;5055818;28;20219;-69
2022/04/14 06:03:20;;;;;;;0.40;0.40;;;16.50;87.50;;;;;;5055352;28;20174;-69
2022/04/14 06:05:45;;;;;;;0.50;0.50;;;16.70;85.90;;;;;;5055987;28;20408;-68
2022/04/14 06:08:11;;;;;;;0.30;0.30;;;16.90;85.50;;;;;;5055699;28;20456;-69
2022/04/14 06:10:37;;;;;;;0.50;0.50;;;16.70;83.80;;;;;;5055634;28;20162;-70
2022/04/14 06:13:03;;;;;;;0.60;0.50;;;16.90;84.30;;;;;;5055918;28;20170;-69
2022/04/14 06:15:31;;;;;;;0.30;0.30;;;17.40;82.40;;;;;;5055894;28;20162;-69
2022/04/14 06:17:57;;;;;;;0.30;0.30;;;17.60;81.20;;;;;;5055802;28;20886;-69
2022/04/14 06:20:22;;;;;;;0.80;0.80;;;17.60;80.70;;;;;;5055357;28;20495;-69
2022/04/14 06:22:48;;;;;;;0.70;0.70;;;17.70;80.00;;;;;;5055550;28;20430;-69
2022/04/14 06:25:17;;;;;;;1.30;0.77;;;17.50;79.90;;;;;;5055499;28;20167;-69
2022/04/14 06:27:46;;;;;;;0.40;0.40;;;17.20;79.20;;;;;;5055433;28;20810;-69
2022/04/14 06:30:18;;;;;;;0.40;0.40;;;16.90;80.20;;;;;;5055227;28;20436;-70
2022/04/14 06:32:57;;;;;;;0.30;0.30;;;16.80;82.10;;;;;;5055493;28;20412;-69
2022/04/14 06:35:23;;;;;;;0.30;0.30;;;16.90;81.90;;;;;;5055537;28;20397;-69
2022/04/14 06:37:49;;;;;;;1.10;1.10;;;17.00;83.10;;;;;;5055318;28;20435;-70
2022/04/14 06:40:15;;;;;;;0.30;0.30;;;17.20;82.60;;;;;;5055134;28;20901;-69
2022/04/14 06:42:40;;;;;;;0.30;0.30;;;17.30;82.20;;;;;;5055863;28;20170;-69
2022/04/14 06:45:06;;;;;;;0.30;0.30;;;17.50;81.00;;;;;;5055351;28;20593;-69
2022/04/14 06:47:32;;;;;;;0.40;0.40;;;17.80;80.60;;;;;;5055017;28;20261;-69
2022/04/14 06:49:58;;;;;;;0.30;0.30;;;18.00;79.90;;;;;;5054866;28;20408;-70
2022/04/14 06:52:23;;;;;;;0.30;0.30;;;18.20;80.00;;;;;;5054781;28;20169;-70
2022/04/14 06:54:49;;;;;;;0.30;0.30;;;18.50;78.90;;;;;;5054886;28;20178;-69
2022/04/14 06:57:15;;;;;;;0.30;0.30;;;19.10;78.30;;;;;;5054536;28;20212;-70
2022/04/14 06:59:41;;;;;;;0.30;0.30;;;19.80;74.80;;;;;;5054830;28;20459;-70
2022/04/14 07:02:07;;;;;;;0.30;0.30;;;20.60;72.80;;;;;;5054477;28;20800;-70
2022/04/14 07:04:34;;;;;;;0.40;0.40;;;21.50;71.10;;;;;;5054440;28;20196;-69
2022/04/14 07:06:59;;;;;;;0.30;0.30;;;22.20;67.10;;;;;;5054381;28;20754;-70
2022/04/14 07:09:25;;;;;;;0.30;0.30;;;23.00;65.00;;;;;;5054321;28;20534;-70
2022/04/14 07:11:53;;;;;;;0.40;0.40;;;23.70;61.60;;;;;;5054581;28;20170;-69
2022/04/14 07:14:19;;;;;;;0.30;0.30;;;25.00;58.40;;;;;;5053741;28;20170;-69
2022/04/14 07:16:45;;;;;;;0.30;0.30;;;26.00;54.80;;;;;;5054436;28;20404;-70
2022/04/14 07:19:11;;;;;;;0.30;0.30;;;27.20;51.60;;;;;;5054518;28;20413;-69
2022/04/14 07:21:37;;;;;;;0.40;0.40;;;28.20;49.00;;;;;;5054257;28;20213;-70
2022/04/14 07:24:03;;;;;;;0.40;0.40;;;29.00;46.80;;;;;;5054637;28;20443;-70
2022/04/14 07:26:28;;;;;;;1.53;1.07;;;30.00;45.50;;;;;;5054601;28;20206;-70
2022/04/14 07:28:54;;;;;;;0.30;0.30;;;30.70;43.00;;;;;;5054138;28;20789;-70
2022/04/14 07:31:19;;;;;;;0.40;0.40;;;30.70;41.50;;;;;;5054140;28;20162;-70
2022/04/14 07:33:45;;;;;;;0.40;0.40;;;30.90;41.70;;;;;;5054247;28;20198;-71
2022/04/14 07:36:12;;;;;;;0.33;0.33;;;31.10;41.20;;;;;;5054232;28;20245;-70
2022/04/14 07:38:38;;;;;;;0.50;0.50;;;31.60;39.90;;;;;;5054095;28;20181;-70
2022/04/14 07:41:05;;;;;;;0.30;0.30;;;32.20;39.90;;;;;;5053942;28;20782;-70
2022/04/14 07:43:32;;;;;;;0.30;0.30;;;33.00;38.50;;;;;;5054157;28;20694;-71
2022/04/14 07:45:58;;;;;;;0.30;0.30;;;33.40;36.80;;;;;;5054416;28;20487;-70
2022/04/14 07:48:23;;;;;;;0.30;0.30;;;33.40;36.80;;;;;;5053830;28;20490;-70
2022/04/14 07:50:49;;;;;;;0.30;0.30;;;33.70;36.20;;;;;;5053815;28;20192;-71
2022/04/14 07:53:15;;;;;;;0.30;0.30;;;33.50;35.70;;;;;;5054093;28;20245;-70
2022/04/14 07:55:41;;;;;;;0.40;0.40;;;32.90;35.30;;;;;;5054051;28;20486;-71
2022/04/14 07:58:07;;;;;;;0.30;0.30;;;32.40;36.40;;;;;;5053806;28;20299;-71
2022/04/14 08:00:37;;;;;;;1.10;1.10;;;32.60;36.40;;;;;;5053789;28;20174;-71
2022/04/14 08:03:04;;;;;;;0.30;0.30;;;32.80;36.60;;;;;;5054124;28;20397;-70
2022/04/14 08:05:34;;;;;;;0.30;0.30;;;33.50;35.20;;;;;;5053796;28;20441;-70
2022/04/14 08:08:02;;;;;;;0.30;0.30;;;33.70;36.10;;;;;;5053625;28;20514;-71
2022/04/14 08:10:28;;;;;;;0.50;0.40;;;34.20;35.70;;;;;;5053325;28;20403;-70
2022/04/14 08:12:54;;;;;;;0.30;0.30;;;33.90;34.80;;;;;;5053665;28;20397;-70
2022/04/14 08:15:20;;;;;;;0.30;0.30;;;33.90;35.30;;;;;;5053754;28;20748;-71
2022/04/14 08:17:46;;;;;;;0.93;0.93;;;33.50;34.90;;;;;;5052180;28;20434;-70
2022/04/14 08:20:14;;;;;;;0.30;0.30;;;33.20;35.10;;;;;;5053477;28;20413;-70
2022/04/14 08:23:07;;;;;;;0.30;0.30;;;32.30;36.00;;;;;;5053312;28;20186;-71
2022/04/14 08:25:35;;;;;;;0.30;0.30;;;32.00;36.60;;;;;;5051223;28;20424;-70
2022/04/14 08:28:04;;;;;;;0.40;0.40;;;32.00;36.40;;;;;;5053224;28;20452;-70
2022/04/14 08:30:30;;;;;;;0.30;0.30;;;31.60;36.70;;;;;;5053159;28;20416;-71
2022/04/14 08:33:00;;;;;;;0.40;0.40;;;31.20;37.30;;;;;;5053457;28;20899;-70
2022/04/14 08:35:26;;;;;;;0.30;0.30;;;30.60;37.80;;;;;;5052289;28;20423;-70
2022/04/14 08:37:52;;;;;;;0.30;0.30;;;30.30;38.40;;;;;;5053305;28;20940;-70
2022/04/14 08:40:23;;;;;;;0.37;0.33;;;30.40;38.80;;;;;;5053437;28;20408;-69
2022/04/14 08:42:56;;;;;;;0.30;0.30;;;31.20;37.10;;;;;;5053427;28;20400;-70
2022/04/14 08:45:23;;;;;;;0.30;0.30;;;31.30;35.80;;;;;;5053286;28;20960;-70
2022/04/14 08:47:53;;;;;;;0.30;0.30;;;31.40;36.20;;;;;;5053344;28;20586;-70
2022/04/14 08:50:19;;;;;;;0.30;0.30;;;31.90;35.40;;;;;;5052950;28;20451;-70
2022/04/14 08:52:44;;;;;;;0.40;0.40;;;32.20;35.10;;;;;;5053651;28;20405;-70
2022/04/14 08:55:14;;;;;;;0.40;0.40;;;32.00;35.40;;;;;;5053048;28;20889;-70
2022/04/14 08:57:43;;;;;;;0.40;0.40;;;31.80;35.20;;;;;;5052884;28;20186;-70
2022/04/14 09:00:16;;;;;;;0.30;0.30;;;31.30;34.90;;;;;;5052815;28;20421;-71
2022/04/14 09:02:45;;;;;;;0.40;0.40;;;31.00;35.80;;;;;;5053177;28;20404;-70
2022/04/14 09:05:17;;;;;;;0.30;0.30;;;31.10;35.50;;;;;;5052964;28;20769;-70
2022/04/14 09:07:46;;;;;;;0.40;0.40;;;31.10;35.40;;;;;;5053230;28;20538;-70
2022/04/14 09:10:12;;;;;;;0.30;0.30;;;31.00;34.80;;;;;;5052838;28;20546;-70
2022/04/14 09:12:38;;;;;;;0.30;0.30;;;31.10;34.70;;;;;;5053150;28;20408;-71
2022/04/14 09:15:05;;;;;;;0.30;0.30;;;31.00;35.20;;;;;;5053147;28;20197;-70
2022/04/14 09:17:30;;;;;;;0.50;0.50;;;31.10;34.70;;;;;;5053015;28;20214;-70
2022/04/14 09:19:56;;;;;;;0.87;0.87;;;30.80;35.60;;;;;;5052640;28;20435;-70
2022/04/14 09:22:23;;;;;;;0.50;0.50;;;30.50;35.30;;;;;;5052887;28;20186;-70
2022/04/14 09:24:57;;;;;;;0.30;0.30;;;30.00;36.50;;;;;;5053111;28;20174;-70
2022/04/14 09:27:30;;;;;;;0.30;0.30;;;29.80;37.10;;;;;;5051617;28;20432;-70
2022/04/14 09:29:58;;;;;;;0.43;0.43;;;29.60;36.90;;;;;;5052601;28;20752;-69
2022/04/14 09:32:38;;;;;;;0.40;0.40;;;29.20;37.60;;;;;;5052971;28;20484;-70
2022/04/14 09:35:16;;;;;;;0.40;0.40;;;28.60;38.60;;;;;;5052966;28;20454;-70
2022/04/14 09:37:43;;;;;;;0.60;0.60;;;28.40;39.10;;;;;;5054266;28;20775;-70
2022/04/14 09:40:09;;;;;;;0.50;0.50;;;27.90;39.90;;;;;;5056365;28;20400;-70
2022/04/14 09:42:37;;;;;;;0.70;0.70;;;27.80;40.90;;;;;;5056363;28;20830;-69
2022/04/14 09:45:19;;;;;;;0.30;0.30;;;27.50;41.70;;;;;;5056249;28;20529;-70
2022/04/14 09:47:48;;;;;;;1.70;1.70;;;27.80;41.10;;;;;;5056063;28;20878;-70
2022/04/14 09:50:32;;;;;;;0.30;0.30;;;27.80;41.20;;;;;;5056141;28;20450;-70
2022/04/14 09:53:01;;;;;;;0.77;0.77;;;27.60;41.70;;;;;;5056293;28;20412;-70
2022/04/14 09:55:28;;;;;;;1.53;1.37;;;27.90;41.70;;;;;;5056076;28;20401;-69
2022/04/14 09:58:11;;;;;;;3.07;1.20;;;27.60;42.00;;;;;;5055975;28;20527;-70
2022/04/14 10:00:38;;;;;;;0.30;0.30;;;27.70;42.20;;;;;;5055986;28;20455;-70
2022/04/14 10:03:08;;;;;;;0.67;0.67;;;27.00;42.40;;;;;;5056140;28;20733;-70
2022/04/14 10:05:34;;;;;;;0.30;0.30;;;26.40;44.50;;;;;;5056084;28;20408;-70
2022/04/14 10:08:00;;;;;;;4.20;1.13;;;26.40;44.50;;;;;;5055819;28;20452;-70
2022/04/14 10:10:26;;;;;;;0.57;0.50;;;26.50;44.30;;;;;;5054338;28;20420;-69
2022/04/14 10:13:03;;;;;;;0.40;0.40;;;27.10;43.90;;;;;;5055935;28;20523;-69
2022/04/14 10:15:34;;;;;;;0.90;0.57;;;27.70;43.70;;;;;;5055981;28;20166;-70
2022/04/14 10:18:06;;;;;;;0.50;0.50;;;28.40;42.40;;;;;;5056290;28;20420;-70
2022/04/14 10:20:32;;;;;;;0.30;0.30;;;29.20;41.60;;;;;;5055675;28;20888;-69
2022/04/14 10:22:59;;;;;;;0.40;0.40;;;29.90;40.10;;;;;;5055518;28;20600;-70
2022/04/14 10:25:25;;;;;;;1.03;1.03;;;30.10;40.40;;;;;;5055611;28;20499;-70
2022/04/14 10:27:54;;;;;;;0.40;0.40;;;30.60;39.10;;;;;;5055506;28;20598;-69
2022/04/14 10:30:20;;;;;;;0.37;0.37;;;30.30;39.20;;;;;;5055203;28;20627;-70
2022/04/14 10:32:46;;;;;;;0.40;0.40;;;29.60;39.50;;;;;;5055347;28;20418;-69
2022/04/14 10:35:13;;;;;;;1.27;1.17;;;28.50;40.50;;;;;;5055385;28;20450;-70
2022/04/14 10:37:48;;;;;;;0.50;0.50;;;28.00;41.80;;;;;;5055312;28;20482;-69
2022/04/14 10:40:14;;;;;;;0.40;0.40;;;27.70;43.50;;;;;;5055406;28;20411;-70
2022/04/14 10:42:48;;;;;;;0.97;0.70;;;27.60;44.20;;;;;;5055499;28;20404;-69
2022/04/14 10:45:19;;;;;;;0.40;0.40;;;28.10;41.70;;;;;;5055419;28;20777;-70
2022/04/14 10:47:50;;;;;;;0.30;0.30;;;28.60;41.10;;;;;;5054880;28;20452;-70
2022/04/14 10:50:23;;;;;;;1.07;1.07;;;28.20;42.00;;;;;;5054945;28;20530;-69
2022/04/14 10:53:11;;;;;;;0.40;0.40;;;27.10;41.60;;;;;;5055139;28;20889;-70
2022/04/14 10:55:53;;;;;;;0.67;0.67;;;26.60;44.40;;;;;;5054946;28;20397;-70
2022/04/14 10:58:36;;;;;;;0.30;0.30;;;26.80;44.10;;;;;;5055052;28;20402;-69
2022/04/14 11:01:02;;;;;;;0.30;0.30;;;26.20;44.20;;;;;;5054816;28;20925;-69
2022/04/14 11:03:53;;;;;;;0.30;0.30;;;26.50;44.80;;;;;;5055021;28;20440;-70
2022/04/14 11:07:13;;;;;;;0.30;0.30;;;26.00;45.00;;;;;;5055155;28;20461;-69
2022/04/14 11:09:38;;;;;;;0.30;0.30;;;25.50;46.50;;;;;;5013010;28;20420;-69
2022/04/14 11:12:05;;;;;;;0.60;0.60;;;24.70;47.90;;;;;;5050931;28;20749;-70
2022/04/14 11:14:57;;;;;;;0.73;0.67;;;24.60;49.70;;;;;;5054721;28;20177;-69
2022/04/14 11:20:35;;;;;;;1.03;0.97;;;23.50;49.70;;;;;;5045339;28;20443;-69
2022/04/14 11:23:20;;;;;;;0.30;0.30;;;23.20;50.20;;;;;;5054324;28;20424;-69
2022/04/14 11:25:51;;;;;;;0.30;0.30;;;23.90;49.90;;;;;;5054564;28;20393;-69
2022/04/14 11:28:40;;;;;;;0.40;0.40;;;24.30;48.90;;;;;;5054190;28;20426;-69
2022/04/14 11:31:17;;;;;;;0.43;0.43;;;24.30;48.30;;;;;;5054247;28;20368;-69
2022/04/14 11:33:45;;;;;;;1.57;1.47;;;24.50;48.40;;;;;;5054404;28;20375;-69
2022/04/14 11:36:19;;;;;;;0.40;0.40;;;24.40;48.40;;;;;;5054210;28;20778;-69
2022/04/14 11:38:59;;;;;;;0.30;0.30;;;24.30;48.30;;;;;;5054077;28;20832;-69
2022/04/14 11:41:50;;;;;;;0.30;0.30;;;23.70;50.20;;;;;;5053996;28;20398;-68
2022/04/14 11:44:15;;;;;;;0.30;0.30;;;23.60;50.10;;;;;;5054386;28;20470;-70
2022/04/14 11:46:50;;;;;;;0.30;0.30;;;23.70;49.80;;;;;;5054141;28;20471;-69
2022/04/14 11:49:21;;;;;;;0.40;0.40;;;23.70;49.70;;;;;;5054009;28;20185;-69
2022/04/14 11:51:48;;;;;;;0.40;0.40;;;23.80;50.10;;;;;;5053869;28;20437;-69
2022/04/14 11:54:29;;;;;;;0.50;0.50;;;23.90;49.90;;;;;;5053892;28;20447;-69
2022/04/14 11:56:56;;;;;;;0.40;0.40;;;23.90;49.90;;;;;;5054041;28;20374;-69
2022/04/14 11:59:32;;;;;;;0.30;0.30;;;23.50;50.60;;;;;;5054099;28;20424;-69
2022/04/14 12:02:02;;;;;;;1.80;1.40;;;23.50;51.50;;;;;;5053463;28;20758;-69
2022/04/14 12:04:33;;;;;;;0.30;0.30;;;23.50;51.40;;;;;;5053691;28;20432;-69
2022/04/14 12:06:58;;;;;;;0.30;0.30;;;23.30;51.30;;;;;;5053740;28;20794;-69
2022/04/14 12:09:24;;;;;;;0.83;0.83;;;23.10;51.90;;;;;;5053826;28;20452;-70
2022/04/14 12:11:51;;;;;;;1.17;1.07;;;23.00;52.40;;;;;;5053580;28;20184;-70
2022/04/14 12:14:17;;;;;;;0.30;0.30;;;23.00;52.60;;;;;;5053747;28;20197;-69
2022/04/14 12:17:01;;;;;;;0.40;0.40;;;22.90;53.00;;;;;;5053587;28;20433;-69
2022/04/14 12:19:47;;;;;;;0.30;0.30;;;22.50;53.80;;;;;;5053706;28;20399;-70
2022/04/14 12:22:14;;;;;;;0.37;0.37;;;22.30;55.00;;;;;;5053476;28;20441;-69
2022/04/14 12:24:50;;;;;;;0.30;0.30;;;22.10;55.80;;;;;;5053576;28;20434;-69
2022/04/14 12:27:26;;;;;;;0.30;0.30;;;22.00;56.70;;;;;;5053611;28;20434;-69
2022/04/14 12:29:53;;;;;;;0.47;0.47;;;22.00;56.30;;;;;;5053605;28;20744;-69
2022/04/14 12:32:24;;;;;;;0.37;0.37;;;21.70;55.80;;;;;;5053478;28;20424;-69
2022/04/14 12:34:49;;;;;;;0.30;0.30;;;21.50;56.30;;;;;;5053595;28;20397;-70
2022/04/14 12:37:18;;;;;;;0.40;0.40;;;21.40;56.90;;;;;;5053313;28;20421;-70
2022/04/14 12:40:10;;;;;;;0.70;0.70;;;21.10;56.90;;;;;;5053030;28;20166;-69
2022/04/14 12:42:36;;;;;;;0.37;0.37;;;20.80;57.30;;;;;;5052019;28;20912;-69
2022/04/14 12:45:13;;;;;;;0.70;0.70;;;20.60;57.40;;;;;;5053230;28;20407;-69
2022/04/14 12:47:44;;;;;;;0.50;0.50;;;20.40;57.90;;;;;;5053141;28;20463;-69
2022/04/14 12:50:12;;;;;;;0.30;0.30;;;20.20;59.60;;;;;;5052836;28;20404;-69
2022/04/14 12:52:39;;;;;;;2.60;0.53;;;20.00;60.60;;;;;;5053143;28;20411;-68
2022/04/14 12:55:06;;;;;;;0.30;0.30;;;19.80;61.70;;;;;;5051916;28;20946;-69
2022/04/14 12:57:33;;;;;;;0.50;0.50;;;19.50;63.20;;;;;;5053036;28;20428;-69